sensor_id;sensor_type;location;lat;lon;timestamp;temperature;humidity
12708;DHT22;6418;50.824;4.718;2022-09-27T00:01:34;9.80;99.90
12708;DHT22;6418;50.824;4.718;2022-09-27T00:04:01;9.70;99.90
12708;DHT22;6418;50.824;4.718;2022-09-27T00:06:30;9.70;99.90
12708;DHT22;6418;50.824;4.718;2022-09-27T00:08:59;9.70;99.90
12708;DHT22;6418;50.824;4.718;2022-09-27T00:11:28;9.70;99.90
12708;DHT22;6418;50.824;4.718;2022-09-27T00:13:57;9.70;99.90
12708;DHT22;6418;50.824;4.718;2022-09-27T00:16:26;9.70;99.90
12708;DHT22;6418;50.824;4.718;2022-09-27T00:18:57;9.70;99.90
12708;DHT22;6418;50.824;4.718;2022-09-27T00:21:25;9.60;99.90
12708;DHT22;6418;50.824;4.718;2022-09-27T00:23:53;9.60;99.90
12708;DHT22;6418;50.824;4.718;2022-09-27T00:26:20;9.60;99.90
12708;DHT22;6418;50.824;4.718;2022-09-27T00:28:47;9.60;99.90
12708;DHT22;6418;50.824;4.718;2022-09-27T00:31:19;9.60;99.90
12708;DHT22;6418;50.824;4.718;2022-09-27T00:33:47;9.60;99.90
12708;DHT22;6418;50.824;4.718;2022-09-27T00:36:16;9.60;99.90
12708;DHT22;6418;50.824;4.718;2022-09-27T00:38:44;9.60;99.90
12708;DHT22;6418;50.824;4.718;2022-09-27T00:41:13;9.60;99.90
12708;DHT22;6418;50.824;4.718;2022-09-27T00:43:47;9.60;99.90
12708;DHT22;6418;50.824;4.718;2022-09-27T00:46:21;9.60;99.90
12708;DHT22;6418;50.824;4.718;2022-09-27T00:48:57;9.60;99.90
12708;DHT22;6418;50.824;4.718;2022-09-27T00:51:25;9.60;99.90
12708;DHT22;6418;50.824;4.718;2022-09-27T00:53:54;9.60;99.90
12708;DHT22;6418;50.824;4.718;2022-09-27T00:56:28;9.60;99.90
12708;DHT22;6418;50.824;4.718;2022-09-27T00:58:59;9.60;99.90
12708;DHT22;6418;50.824;4.718;2022-09-27T01:01:28;9.60;99.90
12708;DHT22;6418;50.824;4.718;2022-09-27T01:03:59;9.60;99.90
12708;DHT22;6418;50.824;4.718;2022-09-27T01:06:27;9.60;99.90
12708;DHT22;6418;50.824;4.718;2022-09-27T01:08:54;9.60;99.90
12708;DHT22;6418;50.824;4.718;2022-09-27T01:11:30;9.60;99.90
12708;DHT22;6418;50.824;4.718;2022-09-27T01:14:10;9.60;99.90
12708;DHT22;6418;50.824;4.718;2022-09-27T01:16:49;9.60;99.90
12708;DHT22;6418;50.824;4.718;2022-09-27T01:19:34;9.60;99.90
12708;DHT22;6418;50.824;4.718;2022-09-27T01:22:08;9.60;99.90
12708;DHT22;6418;50.824;4.718;2022-09-27T01:24:52;9.60;99.90
12708;DHT22;6418;50.824;4.718;2022-09-27T01:30:41;9.60;99.90
12708;DHT22;6418;50.824;4.718;2022-09-27T01:33:41;9.50;99.90
12708;DHT22;6418;50.824;4.718;2022-09-27T01:36:21;9.50;99.90
12708;DHT22;6418;50.824;4.718;2022-09-27T01:38:59;9.50;99.90
12708;DHT22;6418;50.824;4.718;2022-09-27T01:41:33;9.50;99.90
12708;DHT22;6418;50.824;4.718;2022-09-27T01:44:03;9.50;99.90
12708;DHT22;6418;50.824;4.718;2022-09-27T01:46:35;9.50;99.90
12708;DHT22;6418;50.824;4.718;2022-09-27T01:49:08;9.40;99.90
12708;DHT22;6418;50.824;4.718;2022-09-27T01:51:39;9.40;99.90
12708;DHT22;6418;50.824;4.718;2022-09-27T01:54:13;9.40;99.90
12708;DHT22;6418;50.824;4.718;2022-09-27T01:56:46;9.40;99.90
12708;DHT22;6418;50.824;4.718;2022-09-27T01:59:17;9.40;99.90
12708;DHT22;6418;50.824;4.718;2022-09-27T02:01:49;9.40;99.90
12708;DHT22;6418;50.824;4.718;2022-09-27T02:04:20;9.30;99.90
12708;DHT22;6418;50.824;4.718;2022-09-27T02:06:49;9.30;99.90
12708;DHT22;6418;50.824;4.718;2022-09-27T02:09:22;9.20;99.90
12708;DHT22;6418;50.824;4.718;2022-09-27T02:11:54;9.30;99.90
12708;DHT22;6418;50.824;4.718;2022-09-27T02:14:26;9.30;99.90
12708;DHT22;6418;50.824;4.718;2022-09-27T02:16:59;9.30;99.90
12708;DHT22;6418;50.824;4.718;2022-09-27T02:19:37;9.30;99.90
12708;DHT22;6418;50.824;4.718;2022-09-27T02:22:13;9.30;99.90
12708;DHT22;6418;50.824;4.718;2022-09-27T02:24:44;9.30;99.90
12708;DHT22;6418;50.824;4.718;2022-09-27T02:27:22;9.30;99.90
12708;DHT22;6418;50.824;4.718;2022-09-27T02:29:56;9.20;99.90
12708;DHT22;6418;50.824;4.718;2022-09-27T02:32:26;9.20;99.90
12708;DHT22;6418;50.824;4.718;2022-09-27T02:34:54;9.20;99.90
12708;DHT22;6418;50.824;4.718;2022-09-27T02:37:22;9.20;99.90
12708;DHT22;6418;50.824;4.718;2022-09-27T02:39:49;9.20;99.90
12708;DHT22;6418;50.824;4.718;2022-09-27T02:42:16;9.20;99.90
12708;DHT22;6418;50.824;4.718;2022-09-27T02:44:44;9.20;99.90
12708;DHT22;6418;50.824;4.718;2022-09-27T02:50:21;9.20;99.90
12708;DHT22;6418;50.824;4.718;2022-09-27T02:53:01;9.20;99.90
12708;DHT22;6418;50.824;4.718;2022-09-27T02:55:39;9.20;99.90
12708;DHT22;6418;50.824;4.718;2022-09-27T02:58:15;9.10;99.90
12708;DHT22;6418;50.824;4.718;2022-09-27T03:00:47;9.10;99.90
12708;DHT22;6418;50.824;4.718;2022-09-27T03:03:21;9.10;99.90
12708;DHT22;6418;50.824;4.718;2022-09-27T03:05:58;9.10;99.90
12708;DHT22;6418;50.824;4.718;2022-09-27T03:08:28;9.10;99.90
12708;DHT22;6418;50.824;4.718;2022-09-27T03:10:55;9.10;99.90
12708;DHT22;6418;50.824;4.718;2022-09-27T03:13:22;9.10;99.90
12708;DHT22;6418;50.824;4.718;2022-09-27T03:15:48;9.10;99.90
12708;DHT22;6418;50.824;4.718;2022-09-27T03:18:15;9.10;99.90
12708;DHT22;6418;50.824;4.718;2022-09-27T03:20:42;9.10;99.90
12708;DHT22;6418;50.824;4.718;2022-09-27T03:23:11;9.10;99.90
12708;DHT22;6418;50.824;4.718;2022-09-27T03:25:38;9.10;99.90
12708;DHT22;6418;50.824;4.718;2022-09-27T03:28:04;9.10;99.90
12708;DHT22;6418;50.824;4.718;2022-09-27T03:30:31;9.00;99.90
12708;DHT22;6418;50.824;4.718;2022-09-27T03:32:58;9.10;99.90
12708;DHT22;6418;50.824;4.718;2022-09-27T03:35:25;9.00;99.90
12708;DHT22;6418;50.824;4.718;2022-09-27T03:37:52;9.00;99.90
12708;DHT22;6418;50.824;4.718;2022-09-27T03:40:21;9.00;99.90
12708;DHT22;6418;50.824;4.718;2022-09-27T03:42:48;9.00;99.90
12708;DHT22;6418;50.824;4.718;2022-09-27T03:45:16;9.00;99.90
12708;DHT22;6418;50.824;4.718;2022-09-27T03:47:43;9.00;99.90
12708;DHT22;6418;50.824;4.718;2022-09-27T03:50:10;9.00;99.90
12708;DHT22;6418;50.824;4.718;2022-09-27T03:52:37;9.00;99.90
12708;DHT22;6418;50.824;4.718;2022-09-27T03:55:05;9.00;99.90
12708;DHT22;6418;50.824;4.718;2022-09-27T03:57:34;9.00;99.90
12708;DHT22;6418;50.824;4.718;2022-09-27T04:00:01;9.00;99.90
12708;DHT22;6418;50.824;4.718;2022-09-27T04:02:28;8.90;99.90
12708;DHT22;6418;50.824;4.718;2022-09-27T04:04:55;8.90;99.90
12708;DHT22;6418;50.824;4.718;2022-09-27T04:07:22;8.90;99.90
12708;DHT22;6418;50.824;4.718;2022-09-27T04:09:49;8.90;99.90
12708;DHT22;6418;50.824;4.718;2022-09-27T04:12:16;8.90;99.90
12708;DHT22;6418;50.824;4.718;2022-09-27T04:14:44;8.90;99.90
12708;DHT22;6418;50.824;4.718;2022-09-27T04:17:11;8.90;99.90
12708;DHT22;6418;50.824;4.718;2022-09-27T04:19:38;8.90;99.90
12708;DHT22;6418;50.824;4.718;2022-09-27T04:22:05;8.80;99.90
12708;DHT22;6418;50.824;4.718;2022-09-27T04:24:32;8.80;99.90
12708;DHT22;6418;50.824;4.718;2022-09-27T04:26:59;8.80;99.90
12708;DHT22;6418;50.824;4.718;2022-09-27T04:29:26;8.80;99.90
12708;DHT22;6418;50.824;4.718;2022-09-27T04:31:55;8.80;99.90
12708;DHT22;6418;50.824;4.718;2022-09-27T04:34:22;8.70;99.90
12708;DHT22;6418;50.824;4.718;2022-09-27T04:37:09;8.70;99.90
12708;DHT22;6418;50.824;4.718;2022-09-27T04:39:36;8.60;99.90
12708;DHT22;6418;50.824;4.718;2022-09-27T04:42:04;8.60;99.90
12708;DHT22;6418;50.824;4.718;2022-09-27T04:44:31;8.60;99.90
12708;DHT22;6418;50.824;4.718;2022-09-27T04:47:00;8.50;99.90
12708;DHT22;6418;50.824;4.718;2022-09-27T04:49:27;8.50;99.90
12708;DHT22;6418;50.824;4.718;2022-09-27T04:51:54;8.50;99.90
12708;DHT22;6418;50.824;4.718;2022-09-27T04:54:21;8.50;99.90
12708;DHT22;6418;50.824;4.718;2022-09-27T04:56:48;8.50;99.90
12708;DHT22;6418;50.824;4.718;2022-09-27T04:59:15;8.50;99.90
12708;DHT22;6418;50.824;4.718;2022-09-27T05:01:42;8.50;99.90
12708;DHT22;6418;50.824;4.718;2022-09-27T05:04:11;8.50;99.90
12708;DHT22;6418;50.824;4.718;2022-09-27T05:06:38;8.50;99.90
12708;DHT22;6418;50.824;4.718;2022-09-27T05:09:05;8.50;99.90
12708;DHT22;6418;50.824;4.718;2022-09-27T05:11:31;8.50;99.90
12708;DHT22;6418;50.824;4.718;2022-09-27T05:14:02;8.50;99.90
12708;DHT22;6418;50.824;4.718;2022-09-27T05:16:29;8.50;99.90
12708;DHT22;6418;50.824;4.718;2022-09-27T05:18:56;8.50;99.90
12708;DHT22;6418;50.824;4.718;2022-09-27T05:21:24;8.50;99.90
12708;DHT22;6418;50.824;4.718;2022-09-27T05:23:51;8.50;99.90
12708;DHT22;6418;50.824;4.718;2022-09-27T05:26:19;8.60;99.90
12708;DHT22;6418;50.824;4.718;2022-09-27T05:28:46;8.60;99.90
12708;DHT22;6418;50.824;4.718;2022-09-27T05:31:13;8.60;99.90
12708;DHT22;6418;50.824;4.718;2022-09-27T05:33:41;8.60;99.90
12708;DHT22;6418;50.824;4.718;2022-09-27T05:36:08;8.60;99.90
12708;DHT22;6418;50.824;4.718;2022-09-27T05:38:36;8.60;99.90
12708;DHT22;6418;50.824;4.718;2022-09-27T05:41:04;8.60;99.90
12708;DHT22;6418;50.824;4.718;2022-09-27T05:43:31;8.60;99.90
12708;DHT22;6418;50.824;4.718;2022-09-27T05:45:59;8.70;99.90
12708;DHT22;6418;50.824;4.718;2022-09-27T05:48:26;8.70;99.90
12708;DHT22;6418;50.824;4.718;2022-09-27T05:50:54;8.70;99.90
12708;DHT22;6418;50.824;4.718;2022-09-27T05:53:21;8.70;99.90
12708;DHT22;6418;50.824;4.718;2022-09-27T05:55:50;8.70;99.90
12708;DHT22;6418;50.824;4.718;2022-09-27T05:58:17;8.70;99.90
12708;DHT22;6418;50.824;4.718;2022-09-27T06:00:43;8.70;99.90
12708;DHT22;6418;50.824;4.718;2022-09-27T06:03:12;8.70;99.90
12708;DHT22;6418;50.824;4.718;2022-09-27T06:05:39;8.70;99.90
12708;DHT22;6418;50.824;4.718;2022-09-27T06:08:08;8.80;99.90
12708;DHT22;6418;50.824;4.718;2022-09-27T06:10:36;8.80;99.90
12708;DHT22;6418;50.824;4.718;2022-09-27T06:13:05;8.80;99.90
12708;DHT22;6418;50.824;4.718;2022-09-27T06:15:34;8.80;99.90
12708;DHT22;6418;50.824;4.718;2022-09-27T06:18:03;8.80;99.90
12708;DHT22;6418;50.824;4.718;2022-09-27T06:20:31;8.80;99.90
12708;DHT22;6418;50.824;4.718;2022-09-27T06:23:06;8.80;99.90
12708;DHT22;6418;50.824;4.718;2022-09-27T06:25:34;8.80;99.90
12708;DHT22;6418;50.824;4.718;2022-09-27T06:28:01;8.80;99.90
12708;DHT22;6418;50.824;4.718;2022-09-27T06:30:30;8.80;99.90
12708;DHT22;6418;50.824;4.718;2022-09-27T06:32:57;8.90;99.90
12708;DHT22;6418;50.824;4.718;2022-09-27T06:35:25;8.90;99.90
12708;DHT22;6418;50.824;4.718;2022-09-27T06:37:52;8.90;99.90
12708;DHT22;6418;50.824;4.718;2022-09-27T06:40:20;8.90;99.90
12708;DHT22;6418;50.824;4.718;2022-09-27T06:42:49;9.00;99.90
12708;DHT22;6418;50.824;4.718;2022-09-27T06:45:16;9.00;99.90
12708;DHT22;6418;50.824;4.718;2022-09-27T06:47:44;9.00;99.90
12708;DHT22;6418;50.824;4.718;2022-09-27T06:50:11;9.00;99.90
12708;DHT22;6418;50.824;4.718;2022-09-27T06:52:46;9.00;99.90
12708;DHT22;6418;50.824;4.718;2022-09-27T06:55:14;9.00;99.90
12708;DHT22;6418;50.824;4.718;2022-09-27T06:57:43;9.00;99.90
12708;DHT22;6418;50.824;4.718;2022-09-27T07:00:28;8.90;99.90
12708;DHT22;6418;50.824;4.718;2022-09-27T07:02:57;8.90;99.90
12708;DHT22;6418;50.824;4.718;2022-09-27T07:05:27;8.90;99.90
12708;DHT22;6418;50.824;4.718;2022-09-27T07:07:54;8.90;99.90
12708;DHT22;6418;50.824;4.718;2022-09-27T07:10:23;8.90;99.90
12708;DHT22;6418;50.824;4.718;2022-09-27T07:12:50;9.00;99.90
12708;DHT22;6418;50.824;4.718;2022-09-27T07:15:18;9.00;99.90
12708;DHT22;6418;50.824;4.718;2022-09-27T07:17:46;9.10;99.90
12708;DHT22;6418;50.824;4.718;2022-09-27T07:20:15;9.10;99.90
12708;DHT22;6418;50.824;4.718;2022-09-27T07:22:42;9.20;99.90
12708;DHT22;6418;50.824;4.718;2022-09-27T07:25:10;9.10;99.90
12708;DHT22;6418;50.824;4.718;2022-09-27T07:27:37;9.20;99.90
12708;DHT22;6418;50.824;4.718;2022-09-27T07:30:07;9.20;99.90
12708;DHT22;6418;50.824;4.718;2022-09-27T07:32:34;9.20;99.90
12708;DHT22;6418;50.824;4.718;2022-09-27T07:35:02;9.20;99.90
12708;DHT22;6418;50.824;4.718;2022-09-27T07:37:32;9.20;99.90
12708;DHT22;6418;50.824;4.718;2022-09-27T07:39:59;9.30;99.90
12708;DHT22;6418;50.824;4.718;2022-09-27T07:42:27;9.20;99.90
12708;DHT22;6418;50.824;4.718;2022-09-27T07:44:55;9.30;99.90
12708;DHT22;6418;50.824;4.718;2022-09-27T07:47:23;9.20;99.90
12708;DHT22;6418;50.824;4.718;2022-09-27T07:49:50;9.30;99.90
12708;DHT22;6418;50.824;4.718;2022-09-27T07:52:17;9.30;99.90
12708;DHT22;6418;50.824;4.718;2022-09-27T07:54:46;9.30;99.90
12708;DHT22;6418;50.824;4.718;2022-09-27T07:57:13;9.30;99.90
12708;DHT22;6418;50.824;4.718;2022-09-27T07:59:42;9.40;99.90
12708;DHT22;6418;50.824;4.718;2022-09-27T08:02:14;9.40;99.90
12708;DHT22;6418;50.824;4.718;2022-09-27T08:04:41;9.50;99.90
12708;DHT22;6418;50.824;4.718;2022-09-27T08:07:08;9.60;99.90
12708;DHT22;6418;50.824;4.718;2022-09-27T08:09:35;9.70;99.90
12708;DHT22;6418;50.824;4.718;2022-09-27T08:12:04;9.80;99.90
12708;DHT22;6418;50.824;4.718;2022-09-27T08:14:31;9.90;99.90
12708;DHT22;6418;50.824;4.718;2022-09-27T08:16:58;10.00;99.90
12708;DHT22;6418;50.824;4.718;2022-09-27T08:19:25;10.00;99.90
12708;DHT22;6418;50.824;4.718;2022-09-27T08:21:52;10.10;99.90
12708;DHT22;6418;50.824;4.718;2022-09-27T08:24:20;10.10;99.90
12708;DHT22;6418;50.824;4.718;2022-09-27T08:26:47;10.20;99.90
12708;DHT22;6418;50.824;4.718;2022-09-27T08:29:16;10.20;99.90
12708;DHT22;6418;50.824;4.718;2022-09-27T08:31:43;10.30;99.90
12708;DHT22;6418;50.824;4.718;2022-09-27T08:34:10;10.30;99.90
12708;DHT22;6418;50.824;4.718;2022-09-27T08:36:37;10.30;99.90
12708;DHT22;6418;50.824;4.718;2022-09-27T08:39:04;10.30;99.90
12708;DHT22;6418;50.824;4.718;2022-09-27T08:41:34;10.30;99.90
12708;DHT22;6418;50.824;4.718;2022-09-27T08:44:09;10.20;99.90
12708;DHT22;6418;50.824;4.718;2022-09-27T08:46:45;10.20;99.90
12708;DHT22;6418;50.824;4.718;2022-09-27T08:49:18;10.20;99.90
12708;DHT22;6418;50.824;4.718;2022-09-27T08:51:49;10.10;99.90
12708;DHT22;6418;50.824;4.718;2022-09-27T08:54:21;10.20;99.90
12708;DHT22;6418;50.824;4.718;2022-09-27T08:56:49;10.20;99.90
12708;DHT22;6418;50.824;4.718;2022-09-27T08:59:16;10.10;99.90
12708;DHT22;6418;50.824;4.718;2022-09-27T09:01:48;10.10;99.90
12708;DHT22;6418;50.824;4.718;2022-09-27T09:04:23;10.10;99.90
12708;DHT22;6418;50.824;4.718;2022-09-27T09:06:58;10.10;99.90
12708;DHT22;6418;50.824;4.718;2022-09-27T09:09:34;10.10;99.90
12708;DHT22;6418;50.824;4.718;2022-09-27T09:12:12;10.00;99.90
12708;DHT22;6418;50.824;4.718;2022-09-27T09:15:17;10.00;99.90
12708;DHT22;6418;50.824;4.718;2022-09-27T09:18:07;10.00;99.90
12708;DHT22;6418;50.824;4.718;2022-09-27T09:20:54;10.00;99.90
12708;DHT22;6418;50.824;4.718;2022-09-27T09:23:53;10.00;99.90
12708;DHT22;6418;50.824;4.718;2022-09-27T09:26:31;10.00;99.90
12708;DHT22;6418;50.824;4.718;2022-09-27T09:29:10;10.00;99.90
12708;DHT22;6418;50.824;4.718;2022-09-27T09:31:41;10.10;99.90
12708;DHT22;6418;50.824;4.718;2022-09-27T09:34:15;10.10;99.90
12708;DHT22;6418;50.824;4.718;2022-09-27T09:36:46;10.00;99.90
12708;DHT22;6418;50.824;4.718;2022-09-27T09:39:17;10.00;99.90
12708;DHT22;6418;50.824;4.718;2022-09-27T09:42:01;10.00;99.90
12708;DHT22;6418;50.824;4.718;2022-09-27T09:44:37;10.00;99.90
12708;DHT22;6418;50.824;4.718;2022-09-27T09:47:12;10.00;99.90
12708;DHT22;6418;50.824;4.718;2022-09-27T09:49:46;10.00;99.90
12708;DHT22;6418;50.824;4.718;2022-09-27T09:52:19;10.00;99.90
12708;DHT22;6418;50.824;4.718;2022-09-27T09:54:52;10.00;99.90
12708;DHT22;6418;50.824;4.718;2022-09-27T09:57:24;10.00;99.90
12708;DHT22;6418;50.824;4.718;2022-09-27T09:59:58;10.00;99.90
12708;DHT22;6418;50.824;4.718;2022-09-27T10:02:30;10.00;99.90
12708;DHT22;6418;50.824;4.718;2022-09-27T10:05:00;10.10;99.90
12708;DHT22;6418;50.824;4.718;2022-09-27T10:07:28;10.00;99.90
12708;DHT22;6418;50.824;4.718;2022-09-27T10:09:59;10.10;99.90
12708;DHT22;6418;50.824;4.718;2022-09-27T10:12:27;10.10;99.90
12708;DHT22;6418;50.824;4.718;2022-09-27T10:14:57;10.10;99.90
12708;DHT22;6418;50.824;4.718;2022-09-27T10:17:32;10.10;99.90
12708;DHT22;6418;50.824;4.718;2022-09-27T10:20:03;10.10;99.90
12708;DHT22;6418;50.824;4.718;2022-09-27T10:22:35;10.20;99.90
12708;DHT22;6418;50.824;4.718;2022-09-27T10:25:06;10.30;99.90
12708;DHT22;6418;50.824;4.718;2022-09-27T10:27:39;10.30;99.90
12708;DHT22;6418;50.824;4.718;2022-09-27T10:30:21;10.40;99.90
12708;DHT22;6418;50.824;4.718;2022-09-27T10:32:51;10.40;99.90
12708;DHT22;6418;50.824;4.718;2022-09-27T10:35:34;10.50;99.90
12708;DHT22;6418;50.824;4.718;2022-09-27T10:38:20;10.50;99.90
12708;DHT22;6418;50.824;4.718;2022-09-27T10:40:49;10.60;99.90
12708;DHT22;6418;50.824;4.718;2022-09-27T10:43:25;10.60;99.90
12708;DHT22;6418;50.824;4.718;2022-09-27T10:46:02;10.70;99.90
12708;DHT22;6418;50.824;4.718;2022-09-27T10:48:29;10.80;99.90
12708;DHT22;6418;50.824;4.718;2022-09-27T10:50:59;10.80;99.90
12708;DHT22;6418;50.824;4.718;2022-09-27T10:53:28;10.90;99.90
12708;DHT22;6418;50.824;4.718;2022-09-27T10:55:57;11.00;99.90
12708;DHT22;6418;50.824;4.718;2022-09-27T10:58:26;11.10;99.90
12708;DHT22;6418;50.824;4.718;2022-09-27T11:00:56;11.10;99.90
12708;DHT22;6418;50.824;4.718;2022-09-27T11:03:23;11.20;99.90
12708;DHT22;6418;50.824;4.718;2022-09-27T11:05:53;11.30;99.90
12708;DHT22;6418;50.824;4.718;2022-09-27T11:08:30;11.30;99.90
12708;DHT22;6418;50.824;4.718;2022-09-27T11:11:05;11.30;99.90
12708;DHT22;6418;50.824;4.718;2022-09-27T11:13:33;11.40;99.90
12708;DHT22;6418;50.824;4.718;2022-09-27T11:16:25;11.40;99.90
12708;DHT22;6418;50.824;4.718;2022-09-27T11:19:06;11.50;99.90
12708;DHT22;6418;50.824;4.718;2022-09-27T11:21:43;11.50;99.90
12708;DHT22;6418;50.824;4.718;2022-09-27T11:24:26;11.50;99.90
12708;DHT22;6418;50.824;4.718;2022-09-27T11:27:06;11.40;99.90
12708;DHT22;6418;50.824;4.718;2022-09-27T11:29:46;11.40;99.90
12708;DHT22;6418;50.824;4.718;2022-09-27T11:32:28;11.40;99.90
12708;DHT22;6418;50.824;4.718;2022-09-27T11:35:09;11.40;99.90
12708;DHT22;6418;50.824;4.718;2022-09-27T11:37:46;11.50;99.90
12708;DHT22;6418;50.824;4.718;2022-09-27T11:40:26;11.60;99.90
12708;DHT22;6418;50.824;4.718;2022-09-27T11:43:14;11.70;99.90
12708;DHT22;6418;50.824;4.718;2022-09-27T11:45:54;11.90;99.90
12708;DHT22;6418;50.824;4.718;2022-09-27T11:49:03;12.00;99.90
12708;DHT22;6418;50.824;4.718;2022-09-27T11:51:49;12.10;99.90
12708;DHT22;6418;50.824;4.718;2022-09-27T11:54:33;12.20;99.90
12708;DHT22;6418;50.824;4.718;2022-09-27T11:57:08;12.10;99.90
12708;DHT22;6418;50.824;4.718;2022-09-27T12:03:01;12.00;99.90
12708;DHT22;6418;50.824;4.718;2022-09-27T12:05:38;12.00;99.90
12708;DHT22;6418;50.824;4.718;2022-09-27T12:08:25;12.00;99.90
12708;DHT22;6418;50.824;4.718;2022-09-27T12:10:57;12.00;99.90
12708;DHT22;6418;50.824;4.718;2022-09-27T12:13:33;12.10;99.90
12708;DHT22;6418;50.824;4.718;2022-09-27T12:16:01;12.20;99.90
12708;DHT22;6418;50.824;4.718;2022-09-27T12:18:31;12.30;99.90
12708;DHT22;6418;50.824;4.718;2022-09-27T12:21:00;12.30;99.90
12708;DHT22;6418;50.824;4.718;2022-09-27T12:23:32;12.40;99.90
12708;DHT22;6418;50.824;4.718;2022-09-27T12:26:04;12.50;99.90
12708;DHT22;6418;50.824;4.718;2022-09-27T12:28:36;12.50;99.90
12708;DHT22;6418;50.824;4.718;2022-09-27T12:31:12;12.50;99.90
12708;DHT22;6418;50.824;4.718;2022-09-27T12:33:47;12.50;99.90
12708;DHT22;6418;50.824;4.718;2022-09-27T12:36:18;12.50;99.90
12708;DHT22;6418;50.824;4.718;2022-09-27T12:38:52;12.50;99.90
12708;DHT22;6418;50.824;4.718;2022-09-27T12:41:22;12.50;99.90
12708;DHT22;6418;50.824;4.718;2022-09-27T12:43:51;12.50;99.90
12708;DHT22;6418;50.824;4.718;2022-09-27T12:46:28;12.50;99.90
12708;DHT22;6418;50.824;4.718;2022-09-27T12:49:03;12.50;99.90
12708;DHT22;6418;50.824;4.718;2022-09-27T12:51:33;12.40;99.90
12708;DHT22;6418;50.824;4.718;2022-09-27T12:54:20;12.40;99.90
12708;DHT22;6418;50.824;4.718;2022-09-27T12:56:58;12.30;99.90
12708;DHT22;6418;50.824;4.718;2022-09-27T12:59:44;12.10;99.90
12708;DHT22;6418;50.824;4.718;2022-09-27T13:02:39;12.20;99.90
12708;DHT22;6418;50.824;4.718;2022-09-27T13:05:27;12.20;99.90
12708;DHT22;6418;50.824;4.718;2022-09-27T13:08:12;12.20;99.90
12708;DHT22;6418;50.824;4.718;2022-09-27T13:10:51;12.30;99.90
12708;DHT22;6418;50.824;4.718;2022-09-27T13:13:22;12.30;99.90
12708;DHT22;6418;50.824;4.718;2022-09-27T13:15:55;12.30;99.90
12708;DHT22;6418;50.824;4.718;2022-09-27T13:18:31;12.40;99.90
12708;DHT22;6418;50.824;4.718;2022-09-27T13:24:30;12.30;99.90
12708;DHT22;6418;50.824;4.718;2022-09-27T13:26:57;12.30;99.90
12708;DHT22;6418;50.824;4.718;2022-09-27T13:29:30;12.30;99.90
12708;DHT22;6418;50.824;4.718;2022-09-27T13:32:16;12.10;99.90
12708;DHT22;6418;50.824;4.718;2022-09-27T13:34:44;12.10;99.90
12708;DHT22;6418;50.824;4.718;2022-09-27T13:37:33;12.00;99.90
12708;DHT22;6418;50.824;4.718;2022-09-27T13:40:22;12.00;99.90
12708;DHT22;6418;50.824;4.718;2022-09-27T13:43:04;11.90;99.90
12708;DHT22;6418;50.824;4.718;2022-09-27T13:45:39;12.00;99.90
12708;DHT22;6418;50.824;4.718;2022-09-27T13:48:14;12.00;99.90
12708;DHT22;6418;50.824;4.718;2022-09-27T13:50:47;12.00;99.90
12708;DHT22;6418;50.824;4.718;2022-09-27T13:53:21;12.20;99.90
12708;DHT22;6418;50.824;4.718;2022-09-27T13:55:50;12.20;99.90
12708;DHT22;6418;50.824;4.718;2022-09-27T13:58:34;12.30;99.90
12708;DHT22;6418;50.824;4.718;2022-09-27T14:01:08;12.30;99.90
12708;DHT22;6418;50.824;4.718;2022-09-27T14:03:47;12.40;99.90
12708;DHT22;6418;50.824;4.718;2022-09-27T14:06:19;12.40;99.90
12708;DHT22;6418;50.824;4.718;2022-09-27T14:08:50;12.50;99.90
12708;DHT22;6418;50.824;4.718;2022-09-27T14:11:22;12.50;99.90
12708;DHT22;6418;50.824;4.718;2022-09-27T14:13:51;12.60;99.90
12708;DHT22;6418;50.824;4.718;2022-09-27T14:16:19;12.60;99.90
12708;DHT22;6418;50.824;4.718;2022-09-27T14:18:50;12.60;99.90
12708;DHT22;6418;50.824;4.718;2022-09-27T14:21:26;12.70;99.90
12708;DHT22;6418;50.824;4.718;2022-09-27T14:24:22;12.70;99.90
12708;DHT22;6418;50.824;4.718;2022-09-27T14:26:51;12.70;99.90
12708;DHT22;6418;50.824;4.718;2022-09-27T14:29:31;12.80;99.90
12708;DHT22;6418;50.824;4.718;2022-09-27T14:32:06;12.90;99.90
12708;DHT22;6418;50.824;4.718;2022-09-27T14:34:37;12.90;99.90
12708;DHT22;6418;50.824;4.718;2022-09-27T14:37:05;13.00;99.90
12708;DHT22;6418;50.824;4.718;2022-09-27T14:39:56;13.10;99.90
12708;DHT22;6418;50.824;4.718;2022-09-27T14:42:25;13.10;99.90
12708;DHT22;6418;50.824;4.718;2022-09-27T14:45:00;13.10;99.90
12708;DHT22;6418;50.824;4.718;2022-09-27T14:47:27;13.20;99.90
12708;DHT22;6418;50.824;4.718;2022-09-27T14:49:59;13.10;99.90
12708;DHT22;6418;50.824;4.718;2022-09-27T14:52:27;13.10;99.90
12708;DHT22;6418;50.824;4.718;2022-09-27T14:55:00;13.20;99.90
12708;DHT22;6418;50.824;4.718;2022-09-27T14:57:30;13.20;99.90
12708;DHT22;6418;50.824;4.718;2022-09-27T15:00:00;13.20;99.90
12708;DHT22;6418;50.824;4.718;2022-09-27T15:02:40;13.20;99.90
12708;DHT22;6418;50.824;4.718;2022-09-27T15:05:14;13.10;99.90
12708;DHT22;6418;50.824;4.718;2022-09-27T15:07:42;13.10;99.90
12708;DHT22;6418;50.824;4.718;2022-09-27T15:10:13;13.00;99.90
12708;DHT22;6418;50.824;4.718;2022-09-27T15:12:43;13.10;99.90
12708;DHT22;6418;50.824;4.718;2022-09-27T15:15:14;12.90;99.90
12708;DHT22;6418;50.824;4.718;2022-09-27T15:17:43;12.90;99.90
12708;DHT22;6418;50.824;4.718;2022-09-27T15:20:23;12.80;99.90
12708;DHT22;6418;50.824;4.718;2022-09-27T15:22:50;12.60;99.90
12708;DHT22;6418;50.824;4.718;2022-09-27T15:25:21;12.40;99.90
12708;DHT22;6418;50.824;4.718;2022-09-27T15:27:51;12.20;99.90
12708;DHT22;6418;50.824;4.718;2022-09-27T15:30:20;12.10;99.90
12708;DHT22;6418;50.824;4.718;2022-09-27T15:32:52;12.00;99.90
12708;DHT22;6418;50.824;4.718;2022-09-27T15:35:26;11.90;99.90
12708;DHT22;6418;50.824;4.718;2022-09-27T15:38:14;11.80;99.90
12708;DHT22;6418;50.824;4.718;2022-09-27T15:41:01;11.70;99.90
12708;DHT22;6418;50.824;4.718;2022-09-27T15:43:30;11.60;99.90
12708;DHT22;6418;50.824;4.718;2022-09-27T15:46:00;11.50;99.90
12708;DHT22;6418;50.824;4.718;2022-09-27T15:48:28;11.50;99.90
12708;DHT22;6418;50.824;4.718;2022-09-27T15:50:58;11.50;99.90
12708;DHT22;6418;50.824;4.718;2022-09-27T15:53:43;11.50;99.90
12708;DHT22;6418;50.824;4.718;2022-09-27T15:56:13;11.50;99.90
12708;DHT22;6418;50.824;4.718;2022-09-27T15:58:41;11.50;99.90
12708;DHT22;6418;50.824;4.718;2022-09-27T16:01:18;11.60;99.90
12708;DHT22;6418;50.824;4.718;2022-09-27T16:03:47;11.60;99.90
12708;DHT22;6418;50.824;4.718;2022-09-27T16:06:15;11.60;99.90
12708;DHT22;6418;50.824;4.718;2022-09-27T16:08:44;11.60;99.90
12708;DHT22;6418;50.824;4.718;2022-09-27T16:11:14;11.60;99.90
12708;DHT22;6418;50.824;4.718;2022-09-27T16:13:42;11.60;99.90
12708;DHT22;6418;50.824;4.718;2022-09-27T16:16:14;11.60;99.90
12708;DHT22;6418;50.824;4.718;2022-09-27T16:18:42;11.70;99.90
12708;DHT22;6418;50.824;4.718;2022-09-27T16:21:09;11.70;99.90
12708;DHT22;6418;50.824;4.718;2022-09-27T16:23:37;11.80;99.90
12708;DHT22;6418;50.824;4.718;2022-09-27T16:26:05;11.80;99.90
12708;DHT22;6418;50.824;4.718;2022-09-27T16:28:32;11.80;99.90
12708;DHT22;6418;50.824;4.718;2022-09-27T16:31:01;11.90;99.90
12708;DHT22;6418;50.824;4.718;2022-09-27T16:33:29;11.80;99.90
12708;DHT22;6418;50.824;4.718;2022-09-27T16:35:57;11.80;99.90
12708;DHT22;6418;50.824;4.718;2022-09-27T16:38:26;11.80;99.90